createdAt,value
2018-02-14T00:00:11.233Z,99.90
2018-02-14T00:02:44.697Z,99.90
2018-02-14T00:05:14.632Z,99.90
2018-02-14T00:07:43.415Z,99.90
2018-02-14T00:10:13.217Z,99.90
2018-02-14T00:12:43.180Z,99.90
2018-02-14T00:15:14.240Z,99.90
2018-02-14T00:17:43.297Z,99.90
2018-02-14T00:20:17.436Z,99.90
2018-02-14T00:22:46.494Z,99.90
2018-02-14T00:25:15.137Z,99.90
2018-02-14T00:27:43.780Z,99.90
2018-02-14T00:30:13.728Z,99.90
2018-02-14T00:32:41.760Z,99.90
2018-02-14T00:35:09.784Z,99.90
2018-02-14T00:37:38.776Z,99.90
2018-02-14T00:40:10.537Z,99.90
2018-02-14T00:42:38.536Z,99.90
2018-02-14T00:45:06.564Z,99.90
2018-02-14T00:47:37.952Z,99.90
2018-02-14T00:50:06.012Z,99.90
2018-02-14T00:52:35.716Z,99.90
2018-02-14T00:55:05.416Z,99.90
2018-02-14T00:57:33.432Z,99.90
2018-02-14T01:00:02.244Z,99.90
2018-02-14T01:02:30.256Z,99.90
2018-02-14T01:05:00.244Z,99.90
2018-02-14T01:07:32.520Z,99.90
2018-02-14T01:10:08.125Z,99.90
2018-02-14T01:12:38.012Z,99.90
2018-02-14T01:15:06.040Z,99.90
2018-02-14T01:17:34.056Z,99.90
2018-02-14T01:20:11.716Z,99.90
2018-02-14T01:22:41.716Z,99.90
2018-02-14T01:25:10.716Z,99.90
2018-02-14T01:27:50.032Z,99.90
2018-02-14T01:30:18.068Z,99.90
2018-02-14T01:32:46.088Z,99.90
2018-02-14T01:35:14.116Z,99.90
2018-02-14T01:37:42.140Z,99.90
2018-02-14T01:40:10.164Z,99.90
2018-02-14T01:42:40.116Z,99.90
2018-02-14T01:45:08.157Z,99.90
2018-02-14T01:47:39.425Z,99.90
2018-02-14T01:50:07.476Z,99.90
2018-02-14T01:52:36.484Z,99.90
2018-02-14T01:55:04.504Z,99.90
2018-02-14T01:57:34.395Z,99.90
2018-02-14T02:00:03.188Z,99.90
2018-02-14T02:02:32.968Z,99.90
2018-02-14T02:05:01.004Z,99.90
2018-02-14T02:07:33.625Z,99.90
2018-02-14T02:10:01.684Z,99.90
2018-02-14T02:12:29.684Z,99.90
2018-02-14T02:14:58.476Z,99.90
2018-02-14T02:17:27.256Z,99.90
2018-02-14T02:19:56.188Z,99.90
2018-02-14T02:22:29.044Z,99.90
2018-02-14T02:24:57.104Z,99.90
2018-02-14T02:27:25.864Z,99.90
2018-02-14T02:29:54.896Z,99.90
2018-02-14T02:32:23.665Z,99.90
2018-02-14T02:34:53.192Z,99.90
2018-02-14T02:37:21.228Z,99.90
2018-02-14T02:40:01.121Z,99.90
2018-02-14T02:42:33.320Z,99.90
2018-02-14T02:45:01.351Z,99.90
2018-02-14T02:47:30.940Z,99.90
2018-02-14T02:49:59.720Z,99.90
2018-02-14T02:52:29.632Z,99.90
2018-02-14T02:55:00.340Z,99.90
2018-02-14T02:57:34.975Z,99.90
2018-02-14T03:00:09.392Z,99.90
2018-02-14T03:02:40.535Z,99.90
2018-02-14T03:05:08.595Z,99.90
2018-02-14T03:07:37.595Z,99.90
2018-02-14T03:10:05.603Z,99.90
2018-02-14T03:12:33.651Z,99.90
2018-02-14T03:15:03.447Z,99.90
2018-02-14T03:17:35.479Z,99.90
2018-02-14T03:20:05.439Z,99.90
2018-02-14T03:22:34.247Z,99.80
2018-02-14T03:25:04.031Z,99.60
2018-02-14T03:27:36.079Z,99.60
2018-02-14T03:30:07.735Z,99.90
2018-02-14T03:32:37.747Z,99.90
2018-02-14T03:35:09.503Z,99.90
2018-02-14T03:37:41.471Z,99.90
2018-02-14T03:40:09.495Z,99.90
2018-02-14T03:42:39.467Z,99.90
2018-02-14T03:45:08.367Z,99.90
2018-02-14T03:47:38.167Z,99.90
2018-02-14T03:50:09.415Z,99.90
2018-02-14T03:52:38.318Z,99.90
2018-02-14T03:55:07.123Z,99.90
2018-02-14T03:57:35.151Z,99.90
2018-02-14T04:00:07.839Z,99.90
2018-02-14T04:02:35.871Z,99.90
2018-02-14T04:05:04.859Z,99.90
2018-02-14T04:07:33.871Z,99.90
2018-02-14T04:10:02.547Z,99.90
2018-02-14T04:12:34.135Z,99.60
2018-02-14T04:15:08.623Z,99.60
2018-02-14T04:17:36.655Z,99.90
2018-02-14T04:20:05.623Z,99.90
2018-02-14T04:22:35.614Z,99.90
2018-02-14T04:25:05.635Z,99.90
2018-02-14T04:27:37.795Z,99.90
2018-02-14T04:30:09.231Z,99.90
2018-02-14T04:32:40.619Z,99.90
2018-02-14T04:35:10.138Z,99.90
2018-02-14T04:37:38.951Z,99.90
2018-02-14T04:40:07.996Z,99.90
2018-02-14T04:42:36.915Z,99.90
2018-02-14T04:45:06.739Z,99.90
2018-02-14T04:47:39.058Z,99.90
2018-02-14T04:50:09.089Z,99.90
2018-02-14T04:52:39.075Z,99.70
2018-02-14T04:55:07.114Z,99.20
2018-02-14T04:57:37.087Z,98.80
2018-02-14T05:00:08.299Z,98.60
2018-02-14T05:02:36.331Z,98.60
2018-02-14T05:05:04.374Z,98.30
2018-02-14T05:07:33.159Z,97.40
2018-02-14T05:10:06.842Z,97.70
2018-02-14T05:12:46.258Z,97.50
2018-02-14T05:15:18.495Z,97.40
2018-02-14T05:17:46.507Z,97.60
2018-02-14T05:20:14.550Z,97.80
2018-02-14T05:22:47.375Z,97.90
2018-02-14T05:25:15.387Z,97.80
2018-02-14T05:27:47.815Z,97.90
2018-02-14T05:30:23.964Z,98.20
2018-02-14T05:32:55.319Z,98.20
2018-02-14T05:35:24.310Z,98.10
2018-02-14T05:37:53.303Z,97.90
2018-02-14T05:40:23.351Z,98.10
2018-02-14T05:42:57.839Z,98.60
2018-02-14T05:45:32.839Z,98.50
2018-02-14T05:48:01.763Z,98.70
2018-02-14T05:50:34.463Z,98.30
2018-02-14T05:53:03.427Z,98.20
2018-02-14T05:55:33.435Z,98.20
2018-02-14T05:58:01.463Z,97.90
2018-02-14T06:00:29.487Z,97.80
2018-02-14T06:03:00.536Z,97.70
2018-02-14T06:05:28.562Z,97.70
2018-02-14T06:07:56.579Z,97.50
2018-02-14T06:10:24.586Z,97.50
2018-02-14T06:12:53.215Z,97.50
2018-02-14T06:15:22.043Z,98.00
2018-02-14T06:17:50.827Z,98.20
2018-02-14T06:20:20.606Z,98.30
2018-02-14T06:22:48.606Z,98.30
2018-02-14T06:25:17.267Z,98.70
2018-02-14T06:27:45.294Z,99.30
2018-02-14T06:30:14.211Z,99.70
2018-02-14T06:32:47.990Z,99.90
2018-02-14T06:35:20.299Z,99.90
2018-02-14T06:37:49.243Z,99.90
2018-02-14T06:40:18.191Z,99.80
2018-02-14T06:42:47.182Z,99.40
2018-02-14T06:45:15.202Z,99.20
2018-02-14T06:47:43.204Z,99.10
2018-02-14T06:50:11.218Z,99.10
2018-02-14T06:52:39.238Z,99.20
2018-02-14T06:55:08.238Z,99.00
2018-02-14T06:57:37.055Z,99.00
2018-02-14T07:00:06.051Z,99.00
2018-02-14T07:02:35.819Z,98.80
2018-02-14T07:05:04.714Z,98.80
2018-02-14T07:07:38.437Z,98.80
2018-02-14T07:10:08.450Z,98.80
2018-02-14T07:12:36.462Z,98.40
2018-02-14T07:15:05.658Z,97.40
2018-02-14T07:17:34.682Z,95.80
2018-02-14T07:20:02.699Z,94.80
2018-02-14T07:22:30.734Z,93.80
2018-02-14T07:24:58.758Z,93.00
2018-02-14T07:27:29.834Z,92.50
2018-02-14T07:30:01.699Z,91.70
2018-02-14T07:32:37.098Z,90.90
2018-02-14T07:35:28.970Z,90.00
2018-02-14T07:41:07.982Z,87.60
2018-02-14T07:43:39.670Z,87.20
2018-02-14T07:46:08.614Z,86.50
2018-02-14T07:48:42.318Z,84.80
2018-02-14T07:51:14.631Z,84.10
2018-02-14T07:53:44.126Z,83.20
2018-02-14T07:56:12.178Z,81.10
2018-02-14T07:58:41.098Z,80.10
2018-02-14T08:01:11.134Z,80.80
2018-02-14T08:03:43.906Z,78.40
2018-02-14T08:06:13.922Z,78.40
2018-02-14T08:08:46.198Z,78.80
2018-02-14T08:11:15.070Z,76.90
2018-02-14T08:13:43.070Z,76.30
2018-02-14T08:16:11.860Z,77.60
2018-02-14T08:18:42.574Z,76.70
2018-02-14T08:21:10.594Z,76.50
2018-02-14T08:23:59.450Z,75.60
2018-02-14T08:26:38.062Z,75.50
2018-02-14T08:29:07.977Z,73.80
2018-02-14T08:31:37.921Z,72.00
2018-02-14T08:34:07.870Z,71.00
2018-02-14T08:36:36.830Z,70.10
2018-02-14T08:39:04.842Z,70.60
2018-02-14T08:41:34.606Z,66.70
2018-02-14T08:44:02.998Z,66.80
2018-02-14T08:46:42.110Z,67.50
2018-02-14T08:49:16.126Z,67.30
2018-02-14T08:51:45.038Z,66.80
2018-02-14T08:54:14.941Z,66.40
2018-02-14T08:56:42.949Z,63.90
2018-02-14T08:59:11.726Z,64.20
2018-02-14T09:01:43.238Z,61.70
2018-02-14T09:04:18.653Z,61.70
2018-02-14T09:06:47.474Z,62.40
2018-02-14T09:09:18.585Z,61.80
2018-02-14T09:11:48.569Z,60.00
2018-02-14T09:14:18.366Z,57.80
2018-02-14T09:16:47.325Z,57.50
2018-02-14T09:19:16.361Z,56.30
2018-02-14T09:21:51.153Z,52.40
2018-02-14T09:24:20.169Z,52.50
2018-02-14T09:26:49.217Z,53.80
2018-02-14T09:29:17.225Z,49.80
2018-02-14T09:31:48.477Z,47.70
2018-02-14T09:34:17.517Z,46.10
2018-02-14T09:36:55.929Z,45.40
2018-02-14T09:39:29.837Z,47.10
2018-02-14T09:42:02.549Z,46.80
2018-02-14T09:44:30.565Z,45.00
2018-02-14T09:47:01.577Z,41.70
2018-02-14T09:49:29.701Z,41.70
2018-02-14T09:51:58.669Z,41.40
2018-02-14T09:54:26.662Z,40.20
2018-02-14T09:56:54.649Z,39.70
2018-02-14T09:59:30.269Z,36.60
2018-02-14T10:01:59.198Z,35.30
2018-02-14T10:04:27.993Z,35.20
2018-02-14T10:07:08.449Z,37.70
2018-02-14T10:09:36.445Z,35.80
2018-02-14T10:12:09.413Z,32.40
2018-02-14T10:14:38.413Z,32.40
2018-02-14T10:17:09.017Z,31.60
2018-02-14T10:19:38.945Z,31.90
2018-02-14T10:22:08.357Z,31.20
2018-02-14T10:24:36.385Z,32.20
2018-02-14T10:27:06.281Z,30.90
2018-02-14T10:29:34.297Z,31.90
2018-02-14T10:32:02.317Z,30.50
2018-02-14T10:34:30.333Z,29.00
2018-02-14T10:37:02.049Z,28.80
2018-02-14T10:39:30.069Z,29.10
2018-02-14T10:41:58.069Z,28.90
2018-02-14T10:44:27.085Z,29.50
2018-02-14T10:46:56.358Z,29.40
2018-02-14T10:49:34.061Z,29.40
2018-02-14T10:52:04.743Z,30.20
2018-02-14T10:54:37.057Z,30.00
2018-02-14T10:57:05.884Z,28.90
2018-02-14T10:59:34.812Z,28.80
2018-02-14T11:02:10.581Z,29.10
2018-02-14T11:04:48.009Z,27.20
2018-02-14T11:10:16.912Z,26.80
2018-02-14T11:12:47.953Z,26.30
2018-02-14T11:15:27.705Z,24.50
2018-02-14T11:17:55.740Z,24.50
2018-02-14T11:20:24.532Z,26.20
2018-02-14T11:22:53.485Z,26.30
2018-02-14T11:25:21.481Z,26.30
2018-02-14T11:27:54.185Z,25.50
2018-02-14T11:30:22.300Z,25.50
2018-02-14T11:32:51.251Z,24.60
2018-02-14T11:35:20.213Z,24.30
2018-02-14T11:37:50.261Z,24.80
2018-02-14T11:40:29.312Z,24.50
2018-02-14T11:43:00.554Z,24.70
2018-02-14T11:45:29.580Z,24.80
2018-02-14T11:48:01.598Z,24.50
2018-02-14T11:50:34.740Z,24.10
2018-02-14T11:53:06.693Z,24.20
2018-02-14T11:55:44.396Z,24.10
2018-02-14T11:58:12.448Z,24.80
2018-02-14T12:00:41.452Z,23.30
2018-02-14T12:03:09.471Z,23.40
2018-02-14T12:05:38.408Z,22.20
2018-02-14T12:08:06.456Z,22.80
2018-02-14T12:10:36.388Z,22.80
2018-02-14T12:13:11.860Z,23.00
2018-02-14T12:16:02.856Z,22.70
2018-02-14T12:18:37.460Z,22.30
2018-02-14T12:21:05.533Z,22.30
2018-02-14T12:23:34.613Z,23.30
2018-02-14T12:26:04.652Z,23.50
2018-02-14T12:28:32.724Z,23.00
2018-02-14T12:31:07.356Z,23.00
2018-02-14T12:33:37.273Z,22.00
2018-02-14T12:36:06.846Z,22.40
2018-02-14T12:38:38.388Z,22.40
2018-02-14T12:41:06.557Z,21.90
2018-02-14T12:43:40.992Z,22.00
2018-02-14T12:46:10.021Z,22.00
2018-02-14T12:48:40.096Z,21.80
2018-02-14T12:51:08.116Z,22.50
2018-02-14T12:53:37.308Z,22.30
2018-02-14T12:56:05.342Z,22.30
2018-02-14T12:58:33.364Z,22.90
2018-02-14T13:01:05.493Z,23.00
2018-02-14T13:03:34.489Z,23.00
2018-02-14T13:06:03.486Z,22.60
2018-02-14T13:08:33.496Z,23.30
2018-02-14T13:11:03.405Z,22.50
2018-02-14T13:13:32.316Z,23.00
2018-02-14T13:16:00.384Z,23.60
2018-02-14T13:18:29.300Z,23.20
2018-02-14T13:21:00.000Z,23.70
2018-02-14T13:23:28.064Z,23.60
2018-02-14T13:26:01.216Z,23.10
2018-02-14T13:28:31.161Z,22.70
2018-02-14T13:30:59.184Z,22.90
2018-02-14T13:33:32.086Z,22.50
2018-02-14T13:36:05.031Z,22.90
2018-02-14T13:38:33.032Z,22.60
2018-02-14T13:41:06.596Z,22.60
2018-02-14T13:43:34.632Z,22.30
2018-02-14T13:46:02.649Z,22.50
2018-02-14T13:48:34.244Z,22.10
2018-02-14T13:51:06.960Z,22.10
2018-02-14T13:53:35.880Z,21.40
2018-02-14T13:56:08.468Z,23.60
2018-02-14T13:58:43.877Z,23.60
2018-02-14T14:01:17.212Z,22.90
2018-02-14T14:03:48.924Z,22.30
2018-02-14T14:06:22.736Z,22.10
2018-02-14T14:08:51.741Z,22.30
2018-02-14T14:11:35.088Z,23.70
2018-02-14T14:14:03.120Z,23.70
2018-02-14T14:16:31.112Z,23.80
2018-02-14T14:18:59.904Z,22.70
2018-02-14T14:21:29.672Z,23.00
2018-02-14T14:23:59.504Z,23.00
2018-02-14T14:26:30.120Z,22.60
2018-02-14T14:28:58.136Z,22.90
2018-02-14T14:31:27.052Z,24.10
2018-02-14T14:34:00.057Z,23.90
2018-02-14T14:36:29.037Z,23.20
2018-02-14T14:39:05.356Z,23.00
2018-02-14T14:41:34.140Z,23.10
2018-02-14T14:44:06.472Z,21.90
2018-02-14T14:46:36.500Z,21.90
2018-02-14T14:49:06.412Z,22.70
2018-02-14T14:51:42.649Z,22.50
2018-02-14T14:54:11.432Z,22.40
2018-02-14T14:56:53.308Z,22.30
2018-02-14T14:59:21.336Z,22.30
2018-02-14T15:01:51.320Z,22.10
2018-02-14T15:04:22.912Z,22.30
2018-02-14T15:06:54.776Z,22.20
2018-02-14T15:09:33.243Z,23.30
2018-02-14T15:12:04.520Z,23.20
2018-02-14T15:14:32.560Z,23.00
2018-02-14T15:17:12.968Z,23.70
2018-02-14T15:19:43.692Z,23.70
2018-02-14T15:22:11.716Z,23.70
2018-02-14T15:25:00.353Z,24.10
2018-02-14T15:27:29.321Z,23.50
2018-02-14T15:30:04.906Z,24.30
2018-02-14T15:32:37.320Z,24.30
2018-02-14T15:35:06.312Z,24.90
2018-02-14T15:37:34.352Z,24.70
2018-02-14T15:40:02.373Z,25.80
2018-02-14T15:42:31.164Z,26.70
2018-02-14T15:45:01.844Z,27.00
2018-02-14T15:47:31.861Z,27.00
2018-02-14T15:50:05.480Z,27.30
2018-02-14T15:52:45.968Z,27.80
2018-02-14T15:55:16.660Z,29.50
2018-02-14T15:57:57.784Z,29.50
2018-02-14T16:00:25.792Z,29.50
2018-02-14T16:02:55.540Z,31.60
2018-02-14T16:05:26.044Z,31.60
2018-02-14T16:07:54.060Z,31.40
2018-02-14T16:10:23.724Z,31.40
2018-02-14T16:12:51.731Z,31.30
2018-02-14T16:15:23.875Z,32.50
2018-02-14T16:17:53.564Z,34.60
2018-02-14T16:20:22.472Z,34.00
2018-02-14T16:22:50.524Z,34.90
2018-02-14T16:25:18.586Z,35.90
2018-02-14T16:27:47.328Z,38.40
2018-02-14T16:30:18.751Z,39.50
2018-02-14T16:32:46.763Z,39.50
2018-02-14T16:35:14.800Z,41.90
2018-02-14T16:37:42.828Z,46.30
2018-02-14T16:40:11.755Z,57.40
2018-02-14T16:42:44.835Z,68.50
2018-02-14T16:45:20.045Z,74.00
2018-02-14T16:47:55.437Z,75.10
2018-02-14T16:50:28.684Z,78.40
2018-02-14T16:53:03.084Z,82.10
2018-02-14T16:55:37.424Z,87.40
2018-02-14T16:58:08.787Z,87.80
2018-02-14T17:00:37.852Z,87.80
2018-02-14T17:03:05.904Z,87.70
2018-02-14T17:05:33.939Z,88.10
2018-02-14T17:08:14.136Z,87.40
2018-02-14T17:10:42.393Z,88.50
2018-02-14T17:13:11.868Z,91.00
2018-02-14T17:15:40.864Z,91.00
2018-02-14T17:18:12.440Z,92.20
2018-02-14T17:20:43.112Z,93.60
2018-02-14T17:23:11.184Z,93.60
2018-02-14T17:25:39.220Z,94.10
2018-02-14T17:28:07.240Z,94.00
2018-02-14T17:30:39.720Z,95.00
2018-02-14T17:33:10.340Z,95.60
2018-02-14T17:35:41.816Z,94.80
2018-02-14T17:38:13.663Z,95.60
2018-02-14T17:40:42.647Z,95.40
2018-02-14T17:43:10.695Z,95.90
2018-02-14T17:45:42.384Z,96.40
2018-02-14T17:48:11.449Z,96.80
2018-02-14T17:50:40.364Z,96.50
2018-02-14T17:53:09.368Z,96.60
2018-02-14T17:55:41.698Z,96.60
2018-02-14T17:58:09.708Z,96.90
2018-02-14T18:00:38.679Z,97.00
2018-02-14T18:03:06.700Z,97.70
2018-02-14T18:05:36.667Z,97.80
2018-02-14T18:08:06.576Z,97.80
2018-02-14T18:10:38.359Z,98.50
2018-02-14T18:13:07.142Z,99.30
2018-02-14T18:15:37.192Z,99.20
2018-02-14T18:18:05.235Z,98.90
2018-02-14T18:20:35.020Z,99.20
2018-02-14T18:23:05.067Z,99.20
2018-02-14T18:25:41.579Z,99.40
2018-02-14T18:28:10.623Z,99.40
2018-02-14T18:30:44.458Z,99.60
2018-02-14T18:33:18.207Z,99.90
2018-02-14T18:35:47.167Z,99.90
2018-02-14T18:38:17.119Z,99.90
2018-02-14T18:40:48.314Z,99.90
2018-02-14T18:43:16.379Z,99.90
2018-02-14T18:45:45.342Z,99.90
2018-02-14T18:48:14.259Z,99.90
2018-02-14T18:50:44.023Z,99.90
2018-02-14T18:53:12.071Z,99.90
2018-02-14T18:55:42.015Z,99.90
2018-02-14T18:58:10.039Z,99.90
2018-02-14T19:00:39.107Z,99.90
2018-02-14T19:03:09.575Z,99.90
2018-02-14T19:05:39.611Z,99.90
2018-02-14T19:08:07.683Z,99.90
2018-02-14T19:10:39.715Z,99.90
2018-02-14T19:13:08.567Z,99.90
2018-02-14T19:15:40.679Z,99.90
2018-02-14T19:18:11.519Z,99.90
2018-02-14T19:20:39.615Z,99.90
2018-02-14T19:23:07.656Z,99.90
2018-02-14T19:25:35.714Z,99.90
2018-02-14T19:28:03.809Z,99.90
2018-02-14T19:30:32.067Z,99.90
2018-02-14T19:33:02.354Z,99.90
2018-02-14T19:35:31.176Z,99.90
2018-02-14T19:38:04.219Z,99.90
2018-02-14T19:40:32.284Z,99.90
2018-02-14T19:43:01.259Z,99.90
2018-02-14T19:45:33.787Z,99.90
2018-02-14T19:48:02.231Z,99.90
2018-02-14T19:50:34.063Z,99.90
2018-02-14T19:53:05.454Z,99.90
2018-02-14T19:55:34.247Z,99.90
2018-02-14T19:58:04.155Z,99.90
2018-02-14T20:00:35.131Z,99.90
2018-02-14T20:03:04.247Z,99.90
2018-02-14T20:05:33.383Z,99.90
2018-02-14T20:08:04.146Z,99.90
2018-02-14T20:10:34.147Z,99.90
2018-02-14T20:13:03.127Z,97.80
2018-02-14T20:15:35.547Z,96.90
2018-02-14T20:18:04.767Z,96.70
2018-02-14T20:20:33.927Z,96.10
2018-02-14T20:23:03.035Z,95.90
2018-02-14T20:25:31.114Z,95.90
2018-02-14T20:28:00.130Z,96.30
2018-02-14T20:30:29.154Z,97.00
2018-02-14T20:32:59.866Z,97.40
2018-02-14T20:35:28.674Z,97.50
2018-02-14T20:37:57.474Z,97.70
2018-02-14T20:40:25.522Z,97.60
2018-02-14T20:42:54.310Z,98.80
2018-02-14T20:45:24.051Z,99.90
2018-02-14T20:47:53.830Z,99.60
2018-02-14T20:50:22.035Z,99.60
2018-02-14T20:52:51.143Z,99.60
2018-02-14T20:55:24.171Z,99.30
2018-02-14T20:57:57.243Z,99.30
2018-02-14T21:00:27.279Z,99.30
2018-02-14T21:02:56.374Z,99.60
2018-02-14T21:05:25.178Z,99.90
2018-02-14T21:07:53.255Z,99.90
2018-02-14T21:10:29.442Z,99.90
2018-02-14T21:12:57.470Z,99.90
2018-02-14T21:15:50.994Z,99.90
2018-02-14T21:18:19.034Z,99.90
2018-02-14T21:20:49.396Z,99.90
2018-02-14T21:23:28.067Z,99.90
2018-02-14T21:25:56.422Z,99.90
2018-02-14T21:28:44.426Z,99.90
2018-02-14T21:31:19.917Z,99.90
2018-02-14T21:33:51.374Z,99.90
2018-02-14T21:36:27.986Z,99.90
2018-02-14T21:39:20.258Z,99.90
2018-02-14T21:41:50.338Z,99.90
2018-02-14T21:44:22.054Z,99.90
2018-02-14T21:47:09.234Z,99.90
2018-02-14T21:49:58.478Z,99.90
2018-02-14T21:52:26.912Z,99.90
2018-02-14T21:54:58.118Z,99.90
2018-02-14T21:57:34.686Z,99.90
2018-02-14T22:00:02.718Z,99.90
2018-02-14T22:02:30.818Z,99.90
2018-02-14T22:04:59.850Z,99.90
2018-02-14T22:07:30.582Z,99.90
2018-02-14T22:09:59.566Z,99.90
2018-02-14T22:12:32.125Z,99.90
2018-02-14T22:15:03.842Z,99.90
2018-02-14T22:17:31.895Z,99.90
2018-02-14T22:19:59.934Z,99.90
2018-02-14T22:22:29.057Z,99.90
2018-02-14T22:25:00.886Z,99.90
2018-02-14T22:27:43.273Z,99.90
2018-02-14T22:30:12.312Z,99.90
2018-02-14T22:32:50.655Z,99.90
2018-02-14T22:35:19.705Z,99.90
2018-02-14T22:37:59.661Z,99.90
2018-02-14T22:40:28.678Z,99.90
2018-02-14T22:42:58.682Z,99.90
2018-02-14T22:45:37.209Z,99.90
2018-02-14T22:48:05.230Z,99.90
2018-02-14T22:50:35.250Z,99.90
2018-02-14T22:53:04.242Z,99.90
2018-02-14T22:55:34.054Z,99.90
2018-02-14T22:58:02.084Z,99.90
2018-02-14T23:00:31.110Z,99.90
2018-02-14T23:03:00.114Z,99.90
2018-02-14T23:05:28.133Z,99.90
2018-02-14T23:07:59.926Z,99.90
2018-02-14T23:10:27.941Z,99.90
2018-02-14T23:12:56.897Z,99.90
2018-02-14T23:15:25.825Z,99.90
2018-02-14T23:17:58.662Z,99.90
2018-02-14T23:20:27.650Z,99.90
2018-02-14T23:22:55.721Z,99.90
2018-02-14T23:25:25.762Z,99.90
2018-02-14T23:27:55.521Z,99.90
2018-02-14T23:30:26.546Z,99.90
2018-02-14T23:32:54.569Z,99.90
2018-02-14T23:35:26.006Z,99.90
2018-02-14T23:37:54.073Z,99.90
2018-02-14T23:40:25.525Z,99.90
2018-02-14T23:42:53.537Z,99.90
2018-02-14T23:45:23.301Z,99.90
2018-02-14T23:47:58.728Z,99.90
2018-02-14T23:50:31.165Z,99.90
2018-02-14T23:53:03.013Z,99.90
2018-02-14T23:55:31.817Z,99.90
2018-02-14T23:58:00.861Z,99.90
